sensor_id;sensor_type;location;lat;lon;timestamp;pressure;altitude;pressure_sealevel;temperature;humidity
13593;BME280;6867;50.998;4.250;2023-05-19T00:00:44;102289.06;;;10.37;67.97
13593;BME280;6867;50.998;4.250;2023-05-19T00:03:11;102288.25;;;10.29;67.99
13593;BME280;6867;50.998;4.250;2023-05-19T00:05:41;102290.06;;;10.28;68.00
13593;BME280;6867;50.998;4.250;2023-05-19T00:08:11;102285.34;;;10.14;68.80
13593;BME280;6867;50.998;4.250;2023-05-19T00:10:40;102284.19;;;10.08;68.86
13593;BME280;6867;50.998;4.250;2023-05-19T00:13:07;102279.13;;;10.05;69.50
13593;BME280;6867;50.998;4.250;2023-05-19T00:15:38;102282.50;;;9.99;69.20
13593;BME280;6867;50.998;4.250;2023-05-19T00:18:05;102276.78;;;9.94;69.65
13593;BME280;6867;50.998;4.250;2023-05-19T00:20:33;102274.06;;;9.86;70.08
13593;BME280;6867;50.998;4.250;2023-05-19T00:22:59;102271.56;;;9.84;71.07
13593;BME280;6867;50.998;4.250;2023-05-19T00:25:26;102275.78;;;9.87;70.71
13593;BME280;6867;50.998;4.250;2023-05-19T00:27:53;102273.56;;;9.90;70.59
13593;BME280;6867;50.998;4.250;2023-05-19T00:30:19;102262.69;;;9.92;69.79
13593;BME280;6867;50.998;4.250;2023-05-19T00:32:48;102267.03;;;9.93;69.94
13593;BME280;6867;50.998;4.250;2023-05-19T00:35:15;102265.69;;;9.89;69.46
13593;BME280;6867;50.998;4.250;2023-05-19T00:37:42;102259.00;;;9.85;69.79
13593;BME280;6867;50.998;4.250;2023-05-19T00:40:09;102264.03;;;9.80;70.27
13593;BME280;6867;50.998;4.250;2023-05-19T00:42:36;102274.06;;;9.69;70.92
13593;BME280;6867;50.998;4.250;2023-05-19T00:45:04;102280.09;;;9.63;71.06
13593;BME280;6867;50.998;4.250;2023-05-19T00:47:32;102275.75;;;9.62;71.09
13593;BME280;6867;50.998;4.250;2023-05-19T00:50:00;102283.28;;;9.59;71.40
13593;BME280;6867;50.998;4.250;2023-05-19T00:52:27;102275.06;;;9.60;71.09
13593;BME280;6867;50.998;4.250;2023-05-19T00:54:54;102268.00;;;9.51;70.69
13593;BME280;6867;50.998;4.250;2023-05-19T00:57:21;102277.53;;;9.45;71.52
13593;BME280;6867;50.998;4.250;2023-05-19T00:59:48;102275.19;;;9.42;71.43
13593;BME280;6867;50.998;4.250;2023-05-19T01:02:14;102288.75;;;9.41;71.73
13593;BME280;6867;50.998;4.250;2023-05-19T01:04:42;102284.56;;;9.38;72.16
13593;BME280;6867;50.998;4.250;2023-05-19T01:07:12;102264.44;;;9.42;71.66
13593;BME280;6867;50.998;4.250;2023-05-19T01:09:39;102264.78;;;9.39;71.63
13593;BME280;6867;50.998;4.250;2023-05-19T01:12:06;102268.78;;;9.35;71.72
13593;BME280;6867;50.998;4.250;2023-05-19T01:14:33;102272.66;;;9.33;72.39
13593;BME280;6867;50.998;4.250;2023-05-19T01:17:03;102275.34;;;9.41;71.95
13593;BME280;6867;50.998;4.250;2023-05-19T01:19:49;102274.84;;;9.37;72.21
13593;BME280;6867;50.998;4.250;2023-05-19T01:22:29;102267.09;;;9.34;72.41
13593;BME280;6867;50.998;4.250;2023-05-19T01:25:27;102273.50;;;9.41;72.33
13593;BME280;6867;50.998;4.250;2023-05-19T01:28:21;102263.06;;;9.30;71.61
13593;BME280;6867;50.998;4.250;2023-05-19T01:30:54;102266.25;;;9.26;72.23
13593;BME280;6867;50.998;4.250;2023-05-19T01:33:22;102272.09;;;9.21;72.28
13593;BME280;6867;50.998;4.250;2023-05-19T01:35:50;102267.84;;;9.10;72.85
13593;BME280;6867;50.998;4.250;2023-05-19T01:38:19;102263.31;;;9.11;72.99
13593;BME280;6867;50.998;4.250;2023-05-19T01:40:47;102261.66;;;9.10;72.56
13593;BME280;6867;50.998;4.250;2023-05-19T01:43:16;102270.00;;;9.07;72.47
13593;BME280;6867;50.998;4.250;2023-05-19T01:45:44;102264.16;;;9.03;73.10
13593;BME280;6867;50.998;4.250;2023-05-19T01:48:13;102264.97;;;8.95;72.65
13593;BME280;6867;50.998;4.250;2023-05-19T01:50:40;102252.03;;;8.91;72.86
13593;BME280;6867;50.998;4.250;2023-05-19T01:53:08;102251.22;;;8.90;72.51
13593;BME280;6867;50.998;4.250;2023-05-19T01:55:35;102251.84;;;8.84;73.12
13593;BME280;6867;50.998;4.250;2023-05-19T01:58:11;102253.84;;;8.82;73.03
13593;BME280;6867;50.998;4.250;2023-05-19T02:00:50;102256.66;;;8.81;72.89
13593;BME280;6867;50.998;4.250;2023-05-19T02:03:28;102259.28;;;8.72;73.68
13593;BME280;6867;50.998;4.250;2023-05-19T02:06:04;102259.00;;;8.76;73.49
13593;BME280;6867;50.998;4.250;2023-05-19T02:08:41;102252.78;;;8.75;73.33
13593;BME280;6867;50.998;4.250;2023-05-19T02:11:13;102252.28;;;8.71;73.99
13593;BME280;6867;50.998;4.250;2023-05-19T02:13:43;102249.84;;;8.60;73.90
13593;BME280;6867;50.998;4.250;2023-05-19T02:16:10;102242.81;;;8.59;73.72
13593;BME280;6867;50.998;4.250;2023-05-19T02:18:40;102248.88;;;8.61;74.20
13593;BME280;6867;50.998;4.250;2023-05-19T02:21:09;102244.63;;;8.51;73.73
13593;BME280;6867;50.998;4.250;2023-05-19T02:23:38;102250.63;;;8.44;74.27
13593;BME280;6867;50.998;4.250;2023-05-19T02:26:05;102252.06;;;8.39;74.00
13593;BME280;6867;50.998;4.250;2023-05-19T02:28:33;102243.63;;;8.34;74.91
13593;BME280;6867;50.998;4.250;2023-05-19T02:31:00;102251.31;;;8.29;74.69
13593;BME280;6867;50.998;4.250;2023-05-19T02:33:27;102248.00;;;8.35;74.94
13593;BME280;6867;50.998;4.250;2023-05-19T02:35:56;102243.91;;;8.40;74.63
13593;BME280;6867;50.998;4.250;2023-05-19T02:38:22;102239.50;;;8.39;74.69
13593;BME280;6867;50.998;4.250;2023-05-19T02:40:50;102238.59;;;8.31;74.90
13593;BME280;6867;50.998;4.250;2023-05-19T02:43:17;102237.44;;;8.33;74.97
13593;BME280;6867;50.998;4.250;2023-05-19T02:45:43;102232.47;;;8.38;75.05
13593;BME280;6867;50.998;4.250;2023-05-19T02:48:10;102225.56;;;8.36;74.92
13593;BME280;6867;50.998;4.250;2023-05-19T02:50:37;102221.78;;;8.38;74.67
13593;BME280;6867;50.998;4.250;2023-05-19T02:53:05;102223.44;;;8.39;74.64
13593;BME280;6867;50.998;4.250;2023-05-19T02:55:31;102219.25;;;8.37;74.59
13593;BME280;6867;50.998;4.250;2023-05-19T02:57:58;102222.06;;;8.35;74.76
13593;BME280;6867;50.998;4.250;2023-05-19T03:00:25;102220.38;;;8.34;74.66
13593;BME280;6867;50.998;4.250;2023-05-19T03:02:51;102229.06;;;8.28;75.05
13593;BME280;6867;50.998;4.250;2023-05-19T03:05:18;102223.00;;;8.26;74.95
13593;BME280;6867;50.998;4.250;2023-05-19T03:07:45;102216.63;;;8.27;74.69
13593;BME280;6867;50.998;4.250;2023-05-19T03:10:13;102227.34;;;8.27;75.10
13593;BME280;6867;50.998;4.250;2023-05-19T03:12:40;102228.72;;;8.31;75.07
13593;BME280;6867;50.998;4.250;2023-05-19T03:15:07;102232.31;;;8.40;75.22
13593;BME280;6867;50.998;4.250;2023-05-19T03:17:34;102217.31;;;8.47;74.94
13593;BME280;6867;50.998;4.250;2023-05-19T03:20:01;102215.47;;;8.47;74.95
13593;BME280;6867;50.998;4.250;2023-05-19T03:22:29;102219.31;;;8.45;74.57
13593;BME280;6867;50.998;4.250;2023-05-19T03:24:56;102216.69;;;8.53;75.08
13593;BME280;6867;50.998;4.250;2023-05-19T03:27:24;102225.75;;;8.60;75.16
13593;BME280;6867;50.998;4.250;2023-05-19T03:29:51;102231.84;;;8.70;75.00
13593;BME280;6867;50.998;4.250;2023-05-19T03:32:18;102210.38;;;8.62;74.47
13593;BME280;6867;50.998;4.250;2023-05-19T03:34:45;102223.31;;;8.75;75.35
13593;BME280;6867;50.998;4.250;2023-05-19T03:37:11;102227.38;;;8.79;75.03
13593;BME280;6867;50.998;4.250;2023-05-19T03:39:38;102209.63;;;8.78;74.03
13593;BME280;6867;50.998;4.250;2023-05-19T03:42:05;102205.41;;;8.76;74.33
13593;BME280;6867;50.998;4.250;2023-05-19T03:44:33;102213.28;;;8.77;74.61
13593;BME280;6867;50.998;4.250;2023-05-19T03:47:00;102219.38;;;8.87;74.75
13593;BME280;6867;50.998;4.250;2023-05-19T03:49:26;102211.66;;;8.92;74.40
13593;BME280;6867;50.998;4.250;2023-05-19T03:51:53;102212.69;;;8.91;74.35
13593;BME280;6867;50.998;4.250;2023-05-19T03:54:20;102217.00;;;8.84;74.42
13593;BME280;6867;50.998;4.250;2023-05-19T03:56:47;102235.44;;;8.87;74.66
13593;BME280;6867;50.998;4.250;2023-05-19T03:59:13;102228.56;;;8.85;74.83
13593;BME280;6867;50.998;4.250;2023-05-19T04:01:42;102219.38;;;8.87;74.95
13593;BME280;6867;50.998;4.250;2023-05-19T04:04:08;102234.19;;;8.73;75.43
13593;BME280;6867;50.998;4.250;2023-05-19T04:06:35;102236.25;;;8.80;75.58
13593;BME280;6867;50.998;4.250;2023-05-19T04:09:02;102230.19;;;8.78;74.54
13593;BME280;6867;50.998;4.250;2023-05-19T04:11:36;102238.22;;;8.78;74.89
13593;BME280;6867;50.998;4.250;2023-05-19T04:14:03;102239.22;;;8.77;74.65
13593;BME280;6867;50.998;4.250;2023-05-19T04:16:30;102252.13;;;8.81;74.97
13593;BME280;6867;50.998;4.250;2023-05-19T04:18:59;102251.84;;;8.84;75.14
13593;BME280;6867;50.998;4.250;2023-05-19T04:21:26;102255.81;;;8.80;75.20
13593;BME280;6867;50.998;4.250;2023-05-19T04:23:52;102256.84;;;8.79;75.61
13593;BME280;6867;50.998;4.250;2023-05-19T04:26:19;102257.38;;;8.83;75.16
13593;BME280;6867;50.998;4.250;2023-05-19T04:28:46;102249.50;;;8.89;74.55
13593;BME280;6867;50.998;4.250;2023-05-19T04:31:13;102261.94;;;8.90;75.51
13593;BME280;6867;50.998;4.250;2023-05-19T04:33:40;102264.22;;;8.85;75.67
13593;BME280;6867;50.998;4.250;2023-05-19T04:36:08;102274.97;;;8.93;75.52
13593;BME280;6867;50.998;4.250;2023-05-19T04:38:38;102277.22;;;9.06;75.26
13593;BME280;6867;50.998;4.250;2023-05-19T04:41:05;102268.91;;;9.17;74.76
13593;BME280;6867;50.998;4.250;2023-05-19T04:43:35;102260.56;;;9.29;74.94
13593;BME280;6867;50.998;4.250;2023-05-19T04:46:05;102264.63;;;9.41;74.49
13593;BME280;6867;50.998;4.250;2023-05-19T04:48:34;102252.22;;;9.48;73.63
13593;BME280;6867;50.998;4.250;2023-05-19T04:51:00;102253.06;;;9.48;73.51
13593;BME280;6867;50.998;4.250;2023-05-19T04:53:29;102247.41;;;9.68;73.88
13593;BME280;6867;50.998;4.250;2023-05-19T04:55:56;102245.41;;;9.78;73.32
13593;BME280;6867;50.998;4.250;2023-05-19T04:58:25;102254.13;;;9.80;72.83
13593;BME280;6867;50.998;4.250;2023-05-19T05:00:51;102258.81;;;9.86;73.04
13593;BME280;6867;50.998;4.250;2023-05-19T05:03:20;102251.28;;;9.98;72.72
13593;BME280;6867;50.998;4.250;2023-05-19T05:05:47;102258.66;;;10.12;73.06
13593;BME280;6867;50.998;4.250;2023-05-19T05:08:14;102252.94;;;10.40;72.21
13593;BME280;6867;50.998;4.250;2023-05-19T05:10:48;102247.03;;;10.61;72.16
13593;BME280;6867;50.998;4.250;2023-05-19T05:13:15;102245.16;;;10.69;71.20
13593;BME280;6867;50.998;4.250;2023-05-19T05:15:42;102242.94;;;10.81;71.00
13593;BME280;6867;50.998;4.250;2023-05-19T05:18:10;102244.94;;;10.95;70.81
13593;BME280;6867;50.998;4.250;2023-05-19T05:20:37;102242.50;;;11.09;70.38
13593;BME280;6867;50.998;4.250;2023-05-19T05:23:05;102226.09;;;10.95;70.06
13593;BME280;6867;50.998;4.250;2023-05-19T05:25:34;102236.13;;;11.10;69.57
13593;BME280;6867;50.998;4.250;2023-05-19T05:28:02;102225.81;;;11.21;69.31
13593;BME280;6867;50.998;4.250;2023-05-19T05:30:30;102231.94;;;11.38;68.80
13593;BME280;6867;50.998;4.250;2023-05-19T05:32:57;102226.06;;;11.35;68.68
13593;BME280;6867;50.998;4.250;2023-05-19T05:35:24;102219.84;;;11.57;68.45
13593;BME280;6867;50.998;4.250;2023-05-19T05:37:50;102206.41;;;11.57;68.29
13593;BME280;6867;50.998;4.250;2023-05-19T05:40:17;102205.22;;;11.83;67.36
13593;BME280;6867;50.998;4.250;2023-05-19T05:42:44;102185.84;;;11.87;67.03
13593;BME280;6867;50.998;4.250;2023-05-19T05:45:12;102183.19;;;12.02;66.86
13593;BME280;6867;50.998;4.250;2023-05-19T05:47:39;102217.72;;;11.99;67.41
13593;BME280;6867;50.998;4.250;2023-05-19T05:50:08;102205.53;;;12.26;66.76
13593;BME280;6867;50.998;4.250;2023-05-19T05:52:35;102187.38;;;12.19;66.25
13593;BME280;6867;50.998;4.250;2023-05-19T05:55:03;102189.19;;;12.42;65.81
13593;BME280;6867;50.998;4.250;2023-05-19T05:57:30;102177.38;;;12.43;65.36
13593;BME280;6867;50.998;4.250;2023-05-19T05:59:59;102160.81;;;12.61;64.58
13593;BME280;6867;50.998;4.250;2023-05-19T06:02:27;102169.00;;;12.67;64.35
13593;BME280;6867;50.998;4.250;2023-05-19T06:04:54;102187.69;;;12.69;64.49
13593;BME280;6867;50.998;4.250;2023-05-19T06:07:21;102175.78;;;12.78;64.31
13593;BME280;6867;50.998;4.250;2023-05-19T06:09:48;102182.84;;;12.79;64.31
13593;BME280;6867;50.998;4.250;2023-05-19T06:12:15;102180.69;;;13.04;63.97
13593;BME280;6867;50.998;4.250;2023-05-19T06:14:42;102171.44;;;13.13;63.62
13593;BME280;6867;50.998;4.250;2023-05-19T06:17:09;102152.34;;;13.30;62.82
13593;BME280;6867;50.998;4.250;2023-05-19T06:19:37;102126.91;;;13.39;61.77
13593;BME280;6867;50.998;4.250;2023-05-19T06:22:03;102140.00;;;13.42;62.21
13593;BME280;6867;50.998;4.250;2023-05-19T06:24:30;102150.22;;;13.47;62.18
13593;BME280;6867;50.998;4.250;2023-05-19T06:26:57;102128.75;;;13.38;61.80
13593;BME280;6867;50.998;4.250;2023-05-19T06:29:23;102133.00;;;13.48;61.51
13593;BME280;6867;50.998;4.250;2023-05-19T06:31:50;102149.81;;;13.71;61.85
13593;BME280;6867;50.998;4.250;2023-05-19T06:34:17;102113.94;;;13.77;61.03
13593;BME280;6867;50.998;4.250;2023-05-19T06:36:45;102133.63;;;13.71;60.99
13593;BME280;6867;50.998;4.250;2023-05-19T06:39:11;102128.75;;;13.60;61.55
13593;BME280;6867;50.998;4.250;2023-05-19T06:41:38;102146.94;;;14.01;60.63
13593;BME280;6867;50.998;4.250;2023-05-19T06:44:06;102135.19;;;14.15;60.55
13593;BME280;6867;50.998;4.250;2023-05-19T06:46:32;102109.06;;;14.29;59.72
13593;BME280;6867;50.998;4.250;2023-05-19T06:48:59;102104.47;;;14.23;59.36
13593;BME280;6867;50.998;4.250;2023-05-19T06:51:26;102109.13;;;14.42;58.85
13593;BME280;6867;50.998;4.250;2023-05-19T06:53:54;102118.66;;;14.31;59.05
13593;BME280;6867;50.998;4.250;2023-05-19T06:56:20;102104.38;;;14.44;58.58
13593;BME280;6867;50.998;4.250;2023-05-19T06:58:48;102083.69;;;14.64;58.01
13593;BME280;6867;50.998;4.250;2023-05-19T07:01:14;102084.91;;;14.55;57.95
13593;BME280;6867;50.998;4.250;2023-05-19T07:03:41;102129.06;;;14.69;58.68
13593;BME280;6867;50.998;4.250;2023-05-19T07:06:08;102088.31;;;14.84;57.24
13593;BME280;6867;50.998;4.250;2023-05-19T07:08:34;102094.75;;;14.76;57.06
13593;BME280;6867;50.998;4.250;2023-05-19T07:11:03;102089.84;;;15.19;56.99
13593;BME280;6867;50.998;4.250;2023-05-19T07:13:30;102073.19;;;15.23;56.42
13593;BME280;6867;50.998;4.250;2023-05-19T07:15:57;102092.78;;;15.38;56.53
13593;BME280;6867;50.998;4.250;2023-05-19T07:18:24;102032.19;;;15.32;55.21
13593;BME280;6867;50.998;4.250;2023-05-19T07:20:51;102046.56;;;15.39;55.52
13593;BME280;6867;50.998;4.250;2023-05-19T07:23:18;102054.25;;;15.49;56.12
13593;BME280;6867;50.998;4.250;2023-05-19T07:25:44;102067.38;;;15.52;55.60
13593;BME280;6867;50.998;4.250;2023-05-19T07:28:12;102062.59;;;15.61;56.13
13593;BME280;6867;50.998;4.250;2023-05-19T07:30:39;102028.38;;;15.93;54.56
13593;BME280;6867;50.998;4.250;2023-05-19T07:33:06;102049.75;;;16.21;54.78
13593;BME280;6867;50.998;4.250;2023-05-19T07:35:33;102025.53;;;16.33;53.77
13593;BME280;6867;50.998;4.250;2023-05-19T07:37:59;102002.41;;;16.30;53.31
13593;BME280;6867;50.998;4.250;2023-05-19T07:40:26;102032.75;;;16.52;53.95
13593;BME280;6867;50.998;4.250;2023-05-19T07:42:53;102015.91;;;16.82;52.94
13593;BME280;6867;50.998;4.250;2023-05-19T07:45:21;102031.63;;;16.66;53.50
13593;BME280;6867;50.998;4.250;2023-05-19T07:47:48;102036.47;;;16.96;53.61
13593;BME280;6867;50.998;4.250;2023-05-19T07:50:14;102010.28;;;17.33;52.37
13593;BME280;6867;50.998;4.250;2023-05-19T07:52:41;101983.34;;;17.32;51.46
13593;BME280;6867;50.998;4.250;2023-05-19T07:55:08;102016.78;;;17.32;52.26
13593;BME280;6867;50.998;4.250;2023-05-19T07:57:35;101992.44;;;17.44;51.46
13593;BME280;6867;50.998;4.250;2023-05-19T08:00:03;101964.22;;;17.63;50.51
13593;BME280;6867;50.998;4.250;2023-05-19T08:02:33;102005.72;;;17.96;50.77
13593;BME280;6867;50.998;4.250;2023-05-19T08:04:59;101918.31;;;18.40;48.67
13593;BME280;6867;50.998;4.250;2023-05-19T08:07:26;101936.56;;;18.94;48.36
13593;BME280;6867;50.998;4.250;2023-05-19T08:09:53;101894.88;;;19.28;46.86
13593;BME280;6867;50.998;4.250;2023-05-19T08:12:20;101887.75;;;19.39;46.33
13593;BME280;6867;50.998;4.250;2023-05-19T08:14:46;101887.03;;;19.67;45.86
13593;BME280;6867;50.998;4.250;2023-05-19T08:17:13;101824.41;;;19.72;44.82
13593;BME280;6867;50.998;4.250;2023-05-19T08:19:41;101814.06;;;19.86;43.92
13593;BME280;6867;50.998;4.250;2023-05-19T08:22:08;101862.09;;;20.32;44.50
13593;BME280;6867;50.998;4.250;2023-05-19T08:24:35;101826.09;;;20.35;43.41
13593;BME280;6867;50.998;4.250;2023-05-19T08:27:03;101790.03;;;20.00;43.27
13593;BME280;6867;50.998;4.250;2023-05-19T08:29:31;101812.13;;;19.98;43.43
13593;BME280;6867;50.998;4.250;2023-05-19T08:31:57;101830.97;;;20.17;43.32
13593;BME280;6867;50.998;4.250;2023-05-19T08:34:24;101825.41;;;20.57;42.47
13593;BME280;6867;50.998;4.250;2023-05-19T08:36:52;101826.38;;;20.84;42.33
13593;BME280;6867;50.998;4.250;2023-05-19T08:39:21;101804.63;;;20.56;42.31
13593;BME280;6867;50.998;4.250;2023-05-19T08:41:51;101818.75;;;20.02;43.14
13593;BME280;6867;50.998;4.250;2023-05-19T08:44:18;101812.94;;;20.61;42.12
13593;BME280;6867;50.998;4.250;2023-05-19T08:46:46;101803.56;;;20.40;42.48
13593;BME280;6867;50.998;4.250;2023-05-19T08:49:13;101817.66;;;21.26;41.44
13593;BME280;6867;50.998;4.250;2023-05-19T08:51:48;101817.94;;;21.47;41.44
13593;BME280;6867;50.998;4.250;2023-05-19T08:54:17;101797.78;;;22.07;40.15
13593;BME280;6867;50.998;4.250;2023-05-19T08:56:45;101821.81;;;22.27;40.41
13593;BME280;6867;50.998;4.250;2023-05-19T08:59:12;101763.78;;;22.25;39.51
13593;BME280;6867;50.998;4.250;2023-05-19T09:01:41;101754.09;;;21.85;39.66
13593;BME280;6867;50.998;4.250;2023-05-19T09:04:10;101737.16;;;21.34;39.88
13593;BME280;6867;50.998;4.250;2023-05-19T09:06:37;101685.34;;;20.95;39.35
13593;BME280;6867;50.998;4.250;2023-05-19T09:09:05;101715.41;;;21.22;39.37
13593;BME280;6867;50.998;4.250;2023-05-19T09:11:34;101753.72;;;21.05;40.41
13593;BME280;6867;50.998;4.250;2023-05-19T09:14:01;101753.47;;;21.29;40.11
13593;BME280;6867;50.998;4.250;2023-05-19T09:16:28;101776.06;;;21.41;40.23
13593;BME280;6867;50.998;4.250;2023-05-19T09:18:57;101771.13;;;21.65;39.84
13593;BME280;6867;50.998;4.250;2023-05-19T09:21:28;101792.50;;;22.27;39.54
13593;BME280;6867;50.998;4.250;2023-05-19T09:24:02;101719.09;;;22.19;38.28
13593;BME280;6867;50.998;4.250;2023-05-19T09:26:36;101695.03;;;21.08;39.33
13593;BME280;6867;50.998;4.250;2023-05-19T09:29:11;101756.06;;;20.97;40.64
13593;BME280;6867;50.998;4.250;2023-05-19T09:31:42;101857.66;;;20.77;42.58
13593;BME280;6867;50.998;4.250;2023-05-19T09:34:13;101713.34;;;20.13;40.56
13593;BME280;6867;50.998;4.250;2023-05-19T09:36:39;101767.41;;;20.16;41.22
13593;BME280;6867;50.998;4.250;2023-05-19T09:39:13;101780.13;;;20.10;41.75
13593;BME280;6867;50.998;4.250;2023-05-19T09:41:41;101722.53;;;20.24;40.33
13593;BME280;6867;50.998;4.250;2023-05-19T09:44:11;101758.91;;;20.12;41.25
13593;BME280;6867;50.998;4.250;2023-05-19T09:46:46;101763.25;;;19.97;41.53
13593;BME280;6867;50.998;4.250;2023-05-19T09:49:17;101768.91;;;20.24;41.20
13593;BME280;6867;50.998;4.250;2023-05-19T09:51:44;101795.03;;;20.36;41.52
13593;BME280;6867;50.998;4.250;2023-05-19T09:54:13;101867.72;;;20.93;42.28
13593;BME280;6867;50.998;4.250;2023-05-19T09:56:41;101835.06;;;21.37;41.13
13593;BME280;6867;50.998;4.250;2023-05-19T09:59:08;101745.19;;;21.68;39.09
13593;BME280;6867;50.998;4.250;2023-05-19T10:01:35;101768.69;;;21.42;39.65
13593;BME280;6867;50.998;4.250;2023-05-19T10:04:05;101755.13;;;21.79;39.08
13593;BME280;6867;50.998;4.250;2023-05-19T10:06:32;101711.94;;;21.81;38.32
13593;BME280;6867;50.998;4.250;2023-05-19T10:09:00;101721.16;;;22.07;38.22
13593;BME280;6867;50.998;4.250;2023-05-19T10:11:29;101757.59;;;22.45;38.36
13593;BME280;6867;50.998;4.250;2023-05-19T10:13:57;101662.50;;;21.87;37.25
13593;BME280;6867;50.998;4.250;2023-05-19T10:16:25;101705.16;;;22.58;37.05
13593;BME280;6867;50.998;4.250;2023-05-19T10:18:54;101755.94;;;22.86;37.97
13593;BME280;6867;50.998;4.250;2023-05-19T10:21:22;101605.59;;;22.95;34.79
13593;BME280;6867;50.998;4.250;2023-05-19T10:23:48;101625.97;;;23.29;34.62
13593;BME280;6867;50.998;4.250;2023-05-19T10:26:15;101643.38;;;22.87;35.78
13593;BME280;6867;50.998;4.250;2023-05-19T10:28:43;101652.09;;;22.74;36.06
13593;BME280;6867;50.998;4.250;2023-05-19T10:31:15;101580.41;;;22.98;34.19
13593;BME280;6867;50.998;4.250;2023-05-19T10:34:09;101534.56;;;21.95;34.82
13593;BME280;6867;50.998;4.250;2023-05-19T10:36:43;101584.28;;;22.34;34.92
13593;BME280;6867;50.998;4.250;2023-05-19T10:39:16;101592.63;;;22.12;35.51
13593;BME280;6867;50.998;4.250;2023-05-19T10:42:01;101646.06;;;22.77;35.40
13593;BME280;6867;50.998;4.250;2023-05-19T10:44:38;101716.13;;;23.21;36.04
13593;BME280;6867;50.998;4.250;2023-05-19T10:47:08;101635.28;;;23.39;34.75
13593;BME280;6867;50.998;4.250;2023-05-19T10:49:36;101576.03;;;23.07;34.02
13593;BME280;6867;50.998;4.250;2023-05-19T10:52:03;101635.25;;;23.13;34.90
13593;BME280;6867;50.998;4.250;2023-05-19T10:54:44;101684.31;;;23.20;35.67
13593;BME280;6867;50.998;4.250;2023-05-19T10:57:13;101651.19;;;23.26;35.05
13593;BME280;6867;50.998;4.250;2023-05-19T10:59:41;101636.38;;;23.53;34.74
13593;BME280;6867;50.998;4.250;2023-05-19T11:02:37;101568.94;;;23.31;33.53
13593;BME280;6867;50.998;4.250;2023-05-19T11:05:09;101639.72;;;23.65;34.55
13593;BME280;6867;50.998;4.250;2023-05-19T11:07:40;101633.13;;;23.97;33.92
13593;BME280;6867;50.998;4.250;2023-05-19T11:10:07;101549.09;;;24.11;32.56
13593;BME280;6867;50.998;4.250;2023-05-19T11:12:41;101534.41;;;23.46;33.38
13593;BME280;6867;50.998;4.250;2023-05-19T11:15:12;101510.22;;;22.81;33.70
13593;BME280;6867;50.998;4.250;2023-05-19T11:17:41;101561.63;;;22.49;34.81
13593;BME280;6867;50.998;4.250;2023-05-19T11:20:19;101557.31;;;22.63;34.54
13593;BME280;6867;50.998;4.250;2023-05-19T11:23:00;101524.88;;;22.24;34.32
13593;BME280;6867;50.998;4.250;2023-05-19T11:25:40;101542.03;;;21.67;35.05
13593;BME280;6867;50.998;4.250;2023-05-19T11:28:07;101567.78;;;21.76;35.52
13593;BME280;6867;50.998;4.250;2023-05-19T11:30:34;101609.28;;;21.68;36.44
13593;BME280;6867;50.998;4.250;2023-05-19T11:33:02;101567.41;;;22.00;35.12
13593;BME280;6867;50.998;4.250;2023-05-19T11:35:30;101608.34;;;21.89;35.98
13593;BME280;6867;50.998;4.250;2023-05-19T11:37:58;101549.66;;;22.07;34.47
13593;BME280;6867;50.998;4.250;2023-05-19T11:40:25;101531.03;;;22.67;33.29
13593;BME280;6867;50.998;4.250;2023-05-19T11:42:52;101444.44;;;22.35;32.85
13593;BME280;6867;50.998;4.250;2023-05-19T11:45:23;101615.81;;;22.42;35.42
13593;BME280;6867;50.998;4.250;2023-05-19T11:47:50;101564.97;;;22.66;34.27
13593;BME280;6867;50.998;4.250;2023-05-19T11:50:18;101548.28;;;22.68;34.19
13593;BME280;6867;50.998;4.250;2023-05-19T11:52:45;101487.25;;;22.82;32.82
13593;BME280;6867;50.998;4.250;2023-05-19T11:55:14;101542.50;;;22.54;34.24
13593;BME280;6867;50.998;4.250;2023-05-19T11:57:41;101580.75;;;22.33;35.09
13593;BME280;6867;50.998;4.250;2023-05-19T12:00:10;101525.56;;;22.67;34.05
13593;BME280;6867;50.998;4.250;2023-05-19T12:02:39;101585.13;;;23.23;33.80
13593;BME280;6867;50.998;4.250;2023-05-19T12:05:06;101595.81;;;23.29;34.06
13593;BME280;6867;50.998;4.250;2023-05-19T12:07:45;101589.50;;;23.19;34.44
13593;BME280;6867;50.998;4.250;2023-05-19T12:10:14;101574.72;;;23.35;34.07
13593;BME280;6867;50.998;4.250;2023-05-19T12:12:41;101484.44;;;22.52;33.73
13593;BME280;6867;50.998;4.250;2023-05-19T12:15:10;101520.31;;;22.55;34.02
13593;BME280;6867;50.998;4.250;2023-05-19T12:17:37;101572.09;;;22.72;34.75
13593;BME280;6867;50.998;4.250;2023-05-19T12:20:05;101539.88;;;23.10;33.54
13593;BME280;6867;50.998;4.250;2023-05-19T12:22:32;101533.84;;;23.23;33.51
13593;BME280;6867;50.998;4.250;2023-05-19T12:25:01;101510.81;;;23.55;32.41
13593;BME280;6867;50.998;4.250;2023-05-19T12:27:29;101621.09;;;23.67;34.71
13593;BME280;6867;50.998;4.250;2023-05-19T12:29:56;101483.34;;;23.80;31.82
13593;BME280;6867;50.998;4.250;2023-05-19T12:32:23;101550.16;;;24.25;32.63
13593;BME280;6867;50.998;4.250;2023-05-19T12:34:50;101548.25;;;24.16;32.57
13593;BME280;6867;50.998;4.250;2023-05-19T12:37:17;101477.94;;;23.14;33.04
13593;BME280;6867;50.998;4.250;2023-05-19T12:39:44;101450.00;;;21.93;34.44
13593;BME280;6867;50.998;4.250;2023-05-19T12:42:12;101584.28;;;22.29;35.87
13593;BME280;6867;50.998;4.250;2023-05-19T12:44:42;101642.09;;;23.10;35.44
13593;BME280;6867;50.998;4.250;2023-05-19T12:47:11;101528.09;;;23.30;33.37
13593;BME280;6867;50.998;4.250;2023-05-19T12:49:52;101450.78;;;23.43;32.03
13593;BME280;6867;50.998;4.250;2023-05-19T12:52:19;101449.13;;;23.52;31.91
13593;BME280;6867;50.998;4.250;2023-05-19T12:54:47;101417.13;;;22.97;32.16
13593;BME280;6867;50.998;4.250;2023-05-19T12:57:16;101524.28;;;23.00;34.03
13593;BME280;6867;50.998;4.250;2023-05-19T12:59:43;101540.41;;;23.53;33.10
13593;BME280;6867;50.998;4.250;2023-05-19T13:02:11;101553.56;;;23.86;33.28
13593;BME280;6867;50.998;4.250;2023-05-19T13:04:38;101448.16;;;23.98;31.21
13593;BME280;6867;50.998;4.250;2023-05-19T13:07:04;101371.66;;;23.86;30.35
13593;BME280;6867;50.998;4.250;2023-05-19T13:09:31;101392.09;;;23.49;31.14
13593;BME280;6867;50.998;4.250;2023-05-19T13:11:59;101501.19;;;23.83;32.76